createdAt,value
2018-03-25T00:00:10.488Z,19.20
2018-03-25T00:00:42.232Z,19.20
2018-03-25T00:01:14.724Z,19.30
2018-03-25T00:01:47.246Z,19.20
2018-03-25T00:02:19.006Z,19.30
2018-03-25T00:02:50.744Z,19.20
2018-03-25T00:03:22.489Z,19.20
2018-03-25T00:03:54.258Z,19.30
2018-03-25T00:04:25.956Z,19.30
2018-03-25T00:04:57.717Z,19.20
2018-03-25T00:05:29.454Z,19.20
2018-03-25T00:06:01.190Z,19.20
2018-03-25T00:06:32.924Z,19.20
2018-03-25T00:07:04.680Z,19.20
2018-03-25T00:07:36.410Z,19.20
2018-03-25T00:08:08.175Z,19.30
2018-03-25T00:08:39.921Z,19.20
2018-03-25T00:09:11.655Z,19.30
2018-03-25T00:09:43.430Z,19.20
2018-03-25T00:10:15.180Z,19.20
2018-03-25T00:10:46.931Z,19.30
2018-03-25T00:11:19.465Z,19.30
2018-03-25T00:11:51.191Z,19.30
2018-03-25T00:12:22.936Z,19.30
2018-03-25T00:12:54.680Z,19.20
2018-03-25T00:13:26.488Z,19.20
2018-03-25T00:13:58.383Z,19.30
2018-03-25T00:14:30.124Z,19.30
2018-03-25T00:15:01.884Z,19.20
2018-03-25T00:15:33.632Z,19.20
2018-03-25T00:16:05.410Z,19.20
2018-03-25T00:16:37.941Z,19.20
2018-03-25T00:17:09.713Z,19.20
2018-03-25T00:17:41.439Z,19.20
2018-03-25T00:18:13.186Z,19.30
2018-03-25T00:18:44.917Z,19.20
2018-03-25T00:19:16.760Z,19.20
2018-03-25T00:19:48.504Z,19.20
2018-03-25T00:20:21.781Z,19.20
2018-03-25T00:20:53.579Z,19.20
2018-03-25T00:21:25.471Z,19.20
2018-03-25T00:21:57.258Z,19.20
2018-03-25T00:22:29.761Z,19.20
2018-03-25T00:23:01.511Z,19.20
2018-03-25T00:23:33.243Z,19.20
2018-03-25T00:24:04.984Z,19.20
2018-03-25T00:24:36.757Z,19.20
2018-03-25T00:25:08.492Z,19.20
2018-03-25T00:25:40.226Z,19.20
2018-03-25T00:26:11.989Z,19.30
2018-03-25T00:26:43.723Z,19.30
2018-03-25T00:27:15.511Z,19.20
2018-03-25T00:27:48.059Z,19.20
2018-03-25T00:28:19.968Z,19.20
2018-03-25T00:28:51.711Z,19.20
2018-03-25T00:29:23.475Z,19.20
2018-03-25T00:29:55.228Z,19.20
2018-03-25T00:30:26.987Z,19.20
2018-03-25T00:30:58.736Z,19.20
2018-03-25T00:31:30.684Z,19.20
2018-03-25T00:32:02.427Z,19.20
2018-03-25T00:32:34.212Z,19.20
2018-03-25T00:33:06.711Z,19.20
2018-03-25T00:33:38.440Z,19.20
2018-03-25T00:34:10.182Z,19.20
2018-03-25T00:34:41.913Z,19.20
2018-03-25T00:35:13.671Z,19.20
2018-03-25T00:35:45.411Z,19.20
2018-03-25T00:36:17.191Z,19.20
2018-03-25T00:36:48.926Z,19.20
2018-03-25T00:37:20.659Z,19.20
2018-03-25T00:37:52.492Z,19.20
2018-03-25T00:38:24.985Z,19.20
2018-03-25T00:38:56.717Z,19.20
2018-03-25T00:39:28.464Z,19.20
2018-03-25T00:40:00.213Z,19.20
2018-03-25T00:40:31.962Z,19.20
2018-03-25T00:41:03.712Z,19.20
2018-03-25T00:41:35.466Z,19.20
2018-03-25T00:42:07.213Z,19.20
2018-03-25T00:42:38.944Z,19.20
2018-03-25T00:43:10.690Z,19.20
2018-03-25T00:43:42.424Z,19.20
2018-03-25T00:44:14.190Z,19.20
2018-03-25T00:44:45.928Z,19.20
2018-03-25T00:45:17.663Z,19.20
2018-03-25T00:45:49.417Z,19.20
2018-03-25T00:46:21.172Z,19.20
2018-03-25T00:46:52.900Z,19.20
2018-03-25T00:47:24.659Z,19.20
2018-03-25T00:47:56.391Z,19.20
2018-03-25T00:48:29.658Z,19.20
2018-03-25T00:49:01.405Z,19.20
2018-03-25T00:49:33.328Z,19.20
2018-03-25T00:50:05.077Z,19.20
2018-03-25T00:50:36.838Z,19.20
2018-03-25T00:51:09.361Z,19.20
2018-03-25T00:51:41.891Z,19.20
2018-03-25T00:52:13.790Z,19.20
2018-03-25T00:52:45.531Z,19.20
2018-03-25T00:53:17.528Z,19.20
2018-03-25T00:53:49.295Z,19.20
2018-03-25T00:54:21.835Z,19.20
2018-03-25T00:54:53.582Z,19.20
2018-03-25T00:55:26.839Z,19.20
2018-03-25T00:55:58.580Z,19.20
2018-03-25T00:56:30.343Z,19.20
2018-03-25T00:57:02.131Z,19.20
2018-03-25T00:57:33.864Z,19.20
2018-03-25T00:58:05.608Z,19.20
2018-03-25T00:58:38.131Z,19.20
2018-03-25T00:59:09.870Z,19.20
2018-03-25T00:59:41.641Z,19.20
2018-03-25T01:00:13.376Z,19.20
2018-03-25T01:00:45.138Z,19.20
2018-03-25T01:01:17.664Z,19.20
2018-03-25T01:01:49.405Z,19.20
2018-03-25T01:02:21.147Z,19.20
2018-03-25T01:02:52.892Z,19.20
2018-03-25T01:03:24.646Z,19.20
2018-03-25T01:03:56.395Z,19.20
2018-03-25T01:04:28.148Z,19.20
2018-03-25T01:04:59.894Z,19.20
2018-03-25T01:05:33.335Z,19.20
2018-03-25T01:06:05.812Z,19.20
2018-03-25T01:06:37.571Z,19.20
2018-03-25T01:07:09.333Z,19.20
2018-03-25T01:07:41.104Z,19.20
2018-03-25T01:08:13.012Z,19.20
2018-03-25T01:08:44.744Z,19.20
2018-03-25T01:09:16.507Z,19.20
2018-03-25T01:09:48.239Z,19.20
2018-03-25T01:10:19.981Z,19.20
2018-03-25T01:10:51.742Z,19.20
2018-03-25T01:11:23.488Z,19.20
2018-03-25T01:11:55.233Z,19.20
2018-03-25T01:12:26.979Z,19.20
2018-03-25T01:12:58.720Z,19.20
2018-03-25T01:13:30.460Z,19.20
2018-03-25T01:14:02.969Z,19.20
2018-03-25T01:14:34.698Z,19.20
2018-03-25T01:15:07.218Z,19.20
2018-03-25T01:15:38.957Z,19.20
2018-03-25T01:16:10.698Z,19.20
2018-03-25T01:16:42.434Z,19.20
2018-03-25T01:17:14.168Z,19.20
2018-03-25T01:17:45.903Z,19.20
2018-03-25T01:18:17.648Z,19.20
2018-03-25T01:18:49.391Z,19.20
2018-03-25T01:19:21.124Z,19.20
2018-03-25T01:19:52.860Z,19.20
2018-03-25T01:20:25.384Z,19.20
2018-03-25T01:20:57.135Z,19.20
2018-03-25T01:21:28.886Z,19.20
2018-03-25T01:22:00.618Z,19.20
2018-03-25T01:22:32.371Z,19.20
2018-03-25T01:23:04.116Z,19.20
2018-03-25T01:23:35.852Z,19.20
2018-03-25T01:24:07.600Z,19.20
2018-03-25T01:24:39.333Z,19.20
2018-03-25T01:25:11.072Z,19.20
2018-03-25T01:25:42.822Z,19.20
2018-03-25T01:26:14.566Z,19.20
2018-03-25T01:26:46.316Z,19.20
2018-03-25T01:27:18.133Z,19.20
2018-03-25T01:27:50.622Z,19.20
2018-03-25T01:28:22.352Z,19.20
2018-03-25T01:28:54.101Z,19.20
2018-03-25T01:29:25.848Z,19.20
2018-03-25T01:29:57.615Z,19.20
2018-03-25T01:30:29.362Z,19.20
2018-03-25T01:31:01.107Z,19.20
2018-03-25T01:31:32.899Z,19.20
2018-03-25T01:32:04.847Z,19.20
2018-03-25T01:32:37.363Z,19.20
2018-03-25T01:33:09.267Z,19.20
2018-03-25T01:33:41.001Z,19.20
2018-03-25T01:34:12.748Z,19.20
2018-03-25T01:34:44.512Z,19.20
2018-03-25T01:35:16.236Z,19.20
2018-03-25T01:35:48.007Z,19.20
2018-03-25T01:36:19.777Z,19.20
2018-03-25T01:36:51.498Z,19.20
2018-03-25T01:37:23.239Z,19.20
2018-03-25T01:37:54.980Z,19.20
2018-03-25T01:38:26.706Z,19.20
2018-03-25T01:38:58.453Z,19.20
2018-03-25T01:39:30.224Z,19.20
2018-03-25T01:40:01.964Z,19.20
2018-03-25T01:40:33.710Z,19.20
2018-03-25T01:41:05.450Z,19.20
2018-03-25T01:41:37.224Z,19.20
2018-03-25T01:42:08.959Z,19.20
2018-03-25T01:42:40.770Z,19.20
2018-03-25T01:43:13.251Z,19.20
2018-03-25T01:43:44.992Z,19.20
2018-03-25T01:44:16.732Z,19.20
2018-03-25T01:44:48.475Z,19.20
2018-03-25T01:45:20.227Z,19.20
2018-03-25T01:45:52.014Z,19.20
2018-03-25T01:46:24.508Z,19.20
2018-03-25T01:46:56.455Z,19.20
2018-03-25T01:47:28.183Z,19.20
2018-03-25T01:47:59.920Z,19.20
2018-03-25T01:48:32.445Z,19.20
2018-03-25T01:49:04.187Z,19.20
2018-03-25T01:49:35.957Z,19.20
2018-03-25T01:50:07.687Z,19.20
2018-03-25T01:50:39.432Z,19.20
2018-03-25T01:51:11.161Z,19.20
2018-03-25T01:51:42.899Z,19.10
2018-03-25T01:52:14.664Z,19.10
2018-03-25T01:52:46.398Z,19.20
2018-03-25T01:53:18.148Z,19.10
2018-03-25T01:53:49.915Z,19.20
2018-03-25T01:54:21.623Z,19.10
2018-03-25T01:54:53.375Z,19.10
2018-03-25T01:55:25.113Z,19.10
2018-03-25T01:55:56.860Z,19.10
2018-03-25T01:56:28.816Z,19.10
2018-03-25T01:57:00.530Z,19.10
2018-03-25T01:57:32.272Z,19.10
2018-03-25T01:58:04.023Z,19.10
2018-03-25T01:58:35.972Z,19.10
2018-03-25T01:59:07.724Z,19.10
2018-03-25T01:59:39.433Z,19.10
2018-03-25T02:00:11.179Z,19.10
2018-03-25T02:00:42.929Z,19.10
2018-03-25T02:01:14.666Z,19.10
2018-03-25T02:01:46.406Z,19.10
2018-03-25T02:02:18.906Z,19.10
2018-03-25T02:02:50.697Z,19.10
2018-03-25T02:03:23.236Z,19.10
2018-03-25T02:03:54.955Z,19.10
2018-03-25T02:04:26.695Z,19.10
2018-03-25T02:04:58.444Z,19.10
2018-03-25T02:05:30.194Z,19.10
2018-03-25T02:06:01.950Z,19.10
2018-03-25T02:06:33.684Z,19.10
2018-03-25T02:07:05.433Z,19.10
2018-03-25T02:07:37.206Z,19.10
2018-03-25T02:08:09.721Z,19.10
2018-03-25T02:08:41.682Z,19.10
2018-03-25T02:09:13.416Z,19.10
2018-03-25T02:09:45.169Z,19.10
2018-03-25T02:10:16.937Z,19.10
2018-03-25T02:10:48.680Z,19.10
2018-03-25T02:11:20.429Z,19.10
2018-03-25T02:11:52.177Z,19.10
2018-03-25T02:12:23.920Z,19.10
2018-03-25T02:12:55.663Z,19.10
2018-03-25T02:13:27.404Z,19.10
2018-03-25T02:14:00.657Z,19.10
2018-03-25T02:14:32.408Z,19.10
2018-03-25T02:15:04.156Z,19.10
2018-03-25T02:15:35.896Z,19.10
2018-03-25T02:16:07.660Z,19.10
2018-03-25T02:16:39.387Z,19.10
2018-03-25T02:17:11.130Z,19.10
2018-03-25T02:17:42.874Z,19.10
2018-03-25T02:18:14.614Z,19.10
2018-03-25T02:18:46.368Z,19.10
2018-03-25T02:19:18.102Z,19.10
2018-03-25T02:19:49.841Z,19.10
2018-03-25T02:20:21.596Z,19.10
2018-03-25T02:20:53.345Z,19.10
2018-03-25T02:21:25.103Z,19.10
2018-03-25T02:21:57.614Z,19.10
2018-03-25T02:22:29.352Z,19.10
2018-03-25T02:23:01.860Z,19.10
2018-03-25T02:23:33.600Z,19.10
2018-03-25T02:24:05.347Z,19.10
2018-03-25T02:24:37.079Z,19.10
2018-03-25T02:25:08.826Z,19.10
2018-03-25T02:25:40.610Z,19.00
2018-03-25T02:26:12.364Z,19.10
2018-03-25T02:26:44.083Z,19.10
2018-03-25T02:27:15.845Z,19.10
2018-03-25T02:27:47.582Z,19.10
2018-03-25T02:28:19.324Z,19.00
2018-03-25T02:28:51.064Z,19.10
2018-03-25T02:29:22.837Z,19.10
2018-03-25T02:29:55.388Z,19.10
2018-03-25T02:30:27.131Z,19.10
2018-03-25T02:30:58.885Z,19.10
2018-03-25T02:31:30.622Z,19.10
2018-03-25T02:32:02.353Z,19.00
2018-03-25T02:32:34.109Z,19.00
2018-03-25T02:33:06.048Z,19.10
2018-03-25T02:33:37.799Z,19.10
2018-03-25T02:34:09.588Z,19.00
2018-03-25T02:34:41.340Z,19.10
2018-03-25T02:35:13.090Z,19.10
2018-03-25T02:35:45.032Z,19.10
2018-03-25T02:36:16.777Z,19.10
2018-03-25T02:36:48.704Z,19.10
2018-03-25T02:37:20.452Z,19.10
2018-03-25T02:37:52.187Z,19.00
2018-03-25T02:38:24.715Z,19.10
2018-03-25T02:38:56.441Z,19.00
2018-03-25T02:39:28.241Z,19.10
2018-03-25T02:40:00.125Z,19.00
2018-03-25T02:40:31.868Z,19.00
2018-03-25T02:41:03.620Z,19.00
2018-03-25T02:41:35.452Z,19.00
2018-03-25T02:42:07.932Z,19.10
2018-03-25T02:42:39.760Z,19.00
2018-03-25T02:43:12.447Z,19.10
2018-03-25T02:43:44.405Z,19.10
2018-03-25T02:44:16.153Z,19.10
2018-03-25T02:44:47.888Z,19.00
2018-03-25T02:45:19.626Z,19.00
2018-03-25T02:45:51.379Z,19.00
2018-03-25T02:46:23.114Z,19.00
2018-03-25T02:46:54.868Z,19.00
2018-03-25T02:47:26.615Z,19.00
2018-03-25T02:47:58.372Z,19.00
2018-03-25T02:48:30.111Z,19.10
2018-03-25T02:49:01.858Z,19.00
2018-03-25T02:49:33.601Z,19.00
2018-03-25T02:50:05.367Z,19.00
2018-03-25T02:50:37.879Z,19.00
2018-03-25T02:51:09.820Z,19.00
2018-03-25T02:51:41.571Z,19.00
2018-03-25T02:52:13.316Z,19.00
2018-03-25T02:52:45.071Z,19.00
2018-03-25T02:53:16.834Z,19.00
2018-03-25T02:53:48.581Z,19.00
2018-03-25T02:54:20.389Z,19.00
2018-03-25T02:54:52.122Z,19.00
2018-03-25T02:55:23.885Z,19.00
2018-03-25T02:55:55.629Z,19.00
2018-03-25T02:56:27.384Z,19.00
2018-03-25T02:56:59.151Z,19.00
2018-03-25T02:57:30.872Z,19.00
2018-03-25T02:58:02.620Z,19.00
2018-03-25T02:58:34.360Z,19.00
2018-03-25T02:59:06.133Z,19.00
2018-03-25T02:59:37.876Z,19.00
2018-03-25T03:00:09.612Z,19.00
2018-03-25T03:00:41.359Z,19.00
2018-03-25T03:01:13.103Z,19.00
2018-03-25T03:01:44.911Z,19.00
2018-03-25T03:02:17.384Z,19.00
2018-03-25T03:02:49.171Z,19.00
2018-03-25T03:03:20.898Z,19.00
2018-03-25T03:03:52.640Z,19.00
2018-03-25T03:04:24.392Z,19.00
2018-03-25T03:04:56.321Z,19.00
2018-03-25T03:05:28.068Z,19.00
2018-03-25T03:05:59.821Z,19.00
2018-03-25T03:06:31.566Z,19.00
2018-03-25T03:07:03.306Z,19.00
2018-03-25T03:07:35.062Z,19.00
2018-03-25T03:08:07.000Z,19.00
2018-03-25T03:08:38.741Z,19.00
2018-03-25T03:09:10.493Z,19.00
2018-03-25T03:09:42.252Z,19.00
2018-03-25T03:10:14.007Z,19.00
2018-03-25T03:10:46.526Z,19.00
2018-03-25T03:11:18.273Z,19.00
2018-03-25T03:11:50.011Z,19.00
2018-03-25T03:12:21.780Z,19.00
2018-03-25T03:12:53.515Z,19.00
2018-03-25T03:13:25.257Z,19.00
2018-03-25T03:13:56.999Z,19.00
2018-03-25T03:14:28.754Z,19.00
2018-03-25T03:15:00.494Z,19.00
2018-03-25T03:15:32.232Z,19.00
2018-03-25T03:16:03.979Z,19.00
2018-03-25T03:16:35.724Z,19.00
2018-03-25T03:17:07.476Z,19.00
2018-03-25T03:17:39.221Z,19.00
2018-03-25T03:18:10.956Z,19.00
2018-03-25T03:18:42.703Z,19.00
2018-03-25T03:19:14.466Z,19.00
2018-03-25T03:19:46.193Z,19.00
2018-03-25T03:20:17.940Z,19.00
2018-03-25T03:20:49.675Z,19.00
2018-03-25T03:21:21.437Z,19.00
2018-03-25T03:21:53.175Z,19.00
2018-03-25T03:22:24.920Z,19.00
2018-03-25T03:22:56.701Z,19.00
2018-03-25T03:23:28.427Z,19.00
2018-03-25T03:24:00.160Z,19.00
2018-03-25T03:24:31.910Z,19.00
2018-03-25T03:25:03.650Z,19.00
2018-03-25T03:25:35.435Z,19.00
2018-03-25T03:26:08.771Z,19.00
2018-03-25T03:26:41.423Z,19.00
2018-03-25T03:27:13.149Z,19.00
2018-03-25T03:27:44.890Z,19.00
2018-03-25T03:28:16.813Z,19.00
2018-03-25T03:28:49.335Z,19.00
2018-03-25T03:29:21.077Z,19.00
2018-03-25T03:29:52.843Z,19.00
2018-03-25T03:30:24.617Z,19.00
2018-03-25T03:30:56.355Z,19.00
2018-03-25T03:31:28.099Z,19.00
2018-03-25T03:32:00.622Z,19.00
2018-03-25T03:32:32.331Z,19.00
2018-03-25T03:33:04.075Z,19.00
2018-03-25T03:33:35.828Z,19.00
2018-03-25T03:34:07.565Z,19.00
2018-03-25T03:34:39.308Z,19.00
2018-03-25T03:35:11.045Z,19.00
2018-03-25T03:35:42.785Z,19.00
2018-03-25T03:36:14.569Z,19.00
2018-03-25T03:36:46.303Z,19.00
2018-03-25T03:37:18.063Z,19.00
2018-03-25T03:37:49.800Z,19.00
2018-03-25T03:38:21.567Z,19.00
2018-03-25T03:38:53.336Z,19.00
2018-03-25T03:39:25.849Z,19.00
2018-03-25T03:39:57.678Z,19.00
2018-03-25T03:40:29.386Z,19.00
2018-03-25T03:41:01.135Z,19.00
2018-03-25T03:41:32.895Z,19.00
2018-03-25T03:42:04.657Z,19.00
2018-03-25T03:42:36.410Z,19.00
2018-03-25T03:43:08.917Z,19.00
2018-03-25T03:43:40.861Z,19.00
2018-03-25T03:44:12.607Z,19.00
2018-03-25T03:44:44.338Z,19.00
2018-03-25T03:45:16.095Z,19.00
2018-03-25T03:45:47.837Z,19.00
2018-03-25T03:46:19.594Z,19.00
2018-03-25T03:46:51.333Z,19.00
2018-03-25T03:47:23.068Z,19.00
2018-03-25T03:47:54.814Z,19.00
2018-03-25T03:48:26.561Z,19.00
2018-03-25T03:48:58.286Z,19.00
2018-03-25T03:49:30.066Z,19.00
2018-03-25T03:50:01.819Z,19.00
2018-03-25T03:50:33.553Z,19.00
2018-03-25T03:51:05.303Z,19.00
2018-03-25T03:51:37.048Z,19.00
2018-03-25T03:52:08.804Z,19.00
2018-03-25T03:52:40.551Z,19.00
2018-03-25T03:53:12.294Z,19.00
2018-03-25T03:53:44.040Z,19.00
2018-03-25T03:54:15.807Z,19.00
2018-03-25T03:54:47.536Z,19.00
2018-03-25T03:55:19.277Z,19.00
2018-03-25T03:55:51.019Z,19.00
2018-03-25T03:56:22.976Z,19.00
2018-03-25T03:56:54.709Z,19.00
2018-03-25T03:57:26.444Z,19.00
2018-03-25T03:57:58.186Z,19.00
2018-03-25T03:58:29.941Z,19.00
2018-03-25T03:59:01.670Z,19.00
2018-03-25T03:59:33.428Z,19.00
2018-03-25T04:00:05.159Z,19.00
2018-03-25T04:00:36.913Z,19.00
2018-03-25T04:01:08.654Z,19.00
2018-03-25T04:01:40.416Z,19.00
2018-03-25T04:02:12.144Z,19.00
2018-03-25T04:02:43.894Z,19.00
2018-03-25T04:03:15.655Z,19.00
2018-03-25T04:03:47.396Z,19.00
2018-03-25T04:04:19.127Z,19.00
2018-03-25T04:04:50.871Z,19.00
2018-03-25T04:05:22.641Z,19.00
2018-03-25T04:05:54.368Z,19.00
2018-03-25T04:06:26.103Z,19.00
2018-03-25T04:06:57.841Z,19.00
2018-03-25T04:07:29.587Z,19.00
2018-03-25T04:08:01.325Z,19.00
2018-03-25T04:08:33.094Z,19.00
2018-03-25T04:09:04.838Z,19.00
2018-03-25T04:09:36.799Z,19.00
2018-03-25T04:10:08.533Z,19.00
2018-03-25T04:10:40.288Z,19.00
2018-03-25T04:11:12.804Z,19.00
2018-03-25T04:11:44.618Z,19.00
2018-03-25T04:12:16.514Z,19.00
2018-03-25T04:12:48.267Z,19.00
2018-03-25T04:13:20.084Z,19.00
2018-03-25T04:13:52.559Z,19.00
2018-03-25T04:14:24.285Z,19.00
2018-03-25T04:14:56.020Z,19.00
2018-03-25T04:15:27.779Z,19.00
2018-03-25T04:15:59.527Z,19.00
2018-03-25T04:16:31.264Z,19.00
2018-03-25T04:17:03.029Z,19.00
2018-03-25T04:17:34.962Z,19.00
2018-03-25T04:18:07.469Z,19.00
2018-03-25T04:18:39.213Z,19.00
2018-03-25T04:19:10.944Z,19.00
2018-03-25T04:19:42.692Z,19.00
2018-03-25T04:20:14.460Z,19.00
2018-03-25T04:20:46.995Z,19.00
2018-03-25T04:21:18.725Z,19.00
2018-03-25T04:21:50.472Z,19.00
2018-03-25T04:22:22.227Z,19.00
2018-03-25T04:22:53.956Z,19.00
2018-03-25T04:23:25.704Z,19.00
2018-03-25T04:23:57.465Z,19.00
2018-03-25T04:24:29.196Z,19.00
2018-03-25T04:25:00.937Z,19.00
2018-03-25T04:25:32.728Z,19.00
2018-03-25T04:26:05.234Z,19.00
2018-03-25T04:26:36.978Z,19.00
2018-03-25T04:27:08.726Z,19.00
2018-03-25T04:27:40.464Z,19.00
2018-03-25T04:28:12.239Z,19.00
2018-03-25T04:28:43.982Z,19.00
2018-03-25T04:29:15.715Z,19.00
2018-03-25T04:29:47.477Z,19.00
2018-03-25T04:30:19.214Z,19.00
2018-03-25T04:30:50.946Z,19.00
2018-03-25T04:31:22.709Z,19.00
2018-03-25T04:31:54.457Z,19.00
2018-03-25T04:32:26.187Z,19.00
2018-03-25T04:32:57.931Z,19.00
2018-03-25T04:33:29.713Z,19.00
2018-03-25T04:34:01.451Z,19.00
2018-03-25T04:34:33.969Z,19.00
2018-03-25T04:35:05.714Z,19.00
2018-03-25T04:35:37.498Z,19.00
2018-03-25T04:36:10.033Z,19.00
2018-03-25T04:36:41.773Z,19.00
2018-03-25T04:37:13.516Z,19.00
2018-03-25T04:37:45.269Z,19.00
2018-03-25T04:38:17.007Z,19.00
2018-03-25T04:38:48.752Z,19.00
2018-03-25T04:39:20.507Z,19.00
2018-03-25T04:39:52.242Z,19.00
2018-03-25T04:40:23.989Z,19.00
2018-03-25T04:40:55.728Z,19.00
2018-03-25T04:41:27.474Z,19.00
2018-03-25T04:41:59.211Z,19.00
2018-03-25T04:42:31.241Z,19.00
2018-03-25T04:43:03.012Z,19.00
2018-03-25T04:43:34.754Z,19.00
2018-03-25T04:44:06.501Z,19.00
2018-03-25T04:44:38.240Z,19.00
2018-03-25T04:45:09.990Z,19.00
2018-03-25T04:45:41.736Z,19.00
2018-03-25T04:46:13.483Z,19.00
2018-03-25T04:46:45.249Z,19.00
2018-03-25T04:47:17.199Z,19.00
2018-03-25T04:47:49.067Z,19.00
2018-03-25T04:48:21.644Z,19.00
2018-03-25T04:48:53.380Z,19.00
2018-03-25T04:49:25.163Z,19.00
2018-03-25T04:49:56.913Z,19.00
2018-03-25T04:50:28.669Z,19.00
2018-03-25T04:51:00.410Z,19.00
2018-03-25T04:51:32.149Z,19.00
2018-03-25T04:52:03.903Z,19.00
2018-03-25T04:52:35.838Z,19.00
2018-03-25T04:53:08.345Z,19.00
2018-03-25T04:53:40.097Z,19.00
2018-03-25T04:54:11.930Z,19.00
2018-03-25T04:54:43.672Z,19.00
2018-03-25T04:55:15.418Z,19.00
2018-03-25T04:55:47.177Z,19.00
2018-03-25T04:56:18.943Z,19.00
2018-03-25T04:56:50.672Z,19.00
2018-03-25T04:57:22.413Z,19.00
2018-03-25T04:57:54.169Z,19.00
2018-03-25T04:58:25.904Z,19.00
2018-03-25T04:58:57.657Z,19.00
2018-03-25T04:59:29.456Z,19.00
2018-03-25T05:00:01.208Z,19.00
2018-03-25T05:00:32.939Z,19.00
2018-03-25T05:01:04.689Z,19.00
2018-03-25T05:01:36.436Z,19.00
2018-03-25T05:02:08.188Z,19.00
2018-03-25T05:02:39.935Z,19.00
2018-03-25T05:03:11.695Z,19.00
2018-03-25T05:03:43.462Z,19.00
2018-03-25T05:04:15.192Z,19.00
2018-03-25T05:04:46.936Z,19.00
2018-03-25T05:05:18.721Z,19.00
2018-03-25T05:05:51.214Z,19.00
2018-03-25T05:06:22.967Z,19.00
2018-03-25T05:06:54.700Z,19.00
2018-03-25T05:07:26.456Z,19.00
2018-03-25T05:07:58.195Z,19.00
2018-03-25T05:08:29.954Z,19.00
2018-03-25T05:09:01.691Z,19.00
2018-03-25T05:09:33.471Z,19.00
2018-03-25T05:10:05.212Z,19.00
2018-03-25T05:10:36.944Z,19.00
2018-03-25T05:11:08.695Z,19.00
2018-03-25T05:11:40.434Z,19.00
2018-03-25T05:12:12.177Z,19.00
2018-03-25T05:12:43.947Z,19.00
2018-03-25T05:13:15.671Z,19.00
2018-03-25T05:13:47.414Z,19.00
2018-03-25T05:14:19.176Z,19.00
2018-03-25T05:14:51.718Z,19.00
2018-03-25T05:15:23.476Z,19.00
2018-03-25T05:15:55.200Z,19.00
2018-03-25T05:16:26.973Z,19.00
2018-03-25T05:16:59.484Z,19.00
2018-03-25T05:17:31.221Z,19.00
2018-03-25T05:18:02.958Z,19.00
2018-03-25T05:18:34.705Z,19.10
2018-03-25T05:19:06.453Z,19.10
2018-03-25T05:19:38.190Z,19.10
2018-03-25T05:20:09.926Z,19.10
2018-03-25T05:20:41.697Z,19.10
2018-03-25T05:21:13.428Z,19.10
2018-03-25T05:21:45.173Z,19.10
2018-03-25T05:22:16.924Z,19.10
2018-03-25T05:22:48.688Z,19.10
2018-03-25T05:23:20.445Z,19.00
2018-03-25T05:23:52.179Z,19.10
2018-03-25T05:24:23.948Z,19.10
2018-03-25T05:24:55.675Z,19.10
2018-03-25T05:25:27.412Z,19.00
2018-03-25T05:25:59.167Z,19.10
2018-03-25T05:26:30.907Z,19.10
2018-03-25T05:27:02.636Z,19.00
2018-03-25T05:27:34.377Z,19.00
2018-03-25T05:28:06.176Z,19.00
2018-03-25T05:28:38.074Z,19.00
2018-03-25T05:29:09.811Z,19.00
2018-03-25T05:29:41.548Z,19.00
2018-03-25T05:30:13.370Z,19.00
2018-03-25T05:30:45.123Z,19.00
2018-03-25T05:31:16.900Z,19.00
2018-03-25T05:31:48.643Z,19.00
2018-03-25T05:32:20.388Z,19.00
2018-03-25T05:32:52.133Z,19.00
2018-03-25T05:33:23.885Z,19.00
2018-03-25T05:33:55.649Z,19.00
2018-03-25T05:34:27.389Z,19.00
2018-03-25T05:34:59.198Z,19.00
2018-03-25T05:35:31.668Z,19.00
2018-03-25T05:36:03.403Z,19.00
2018-03-25T05:36:35.156Z,19.00
2018-03-25T05:37:07.837Z,19.00
2018-03-25T05:37:39.585Z,19.00
2018-03-25T05:38:11.337Z,19.00
2018-03-25T05:38:43.281Z,19.00
2018-03-25T05:39:15.072Z,19.00
2018-03-25T05:39:47.755Z,19.00
2018-03-25T05:40:19.503Z,19.00
2018-03-25T05:40:51.452Z,19.00
2018-03-25T05:41:23.203Z,19.00
2018-03-25T05:41:54.930Z,19.00
2018-03-25T05:42:26.688Z,19.00
2018-03-25T05:42:58.431Z,19.00
2018-03-25T05:43:30.165Z,19.00
2018-03-25T05:44:01.908Z,19.00
2018-03-25T05:44:33.663Z,19.00
2018-03-25T05:45:05.410Z,19.00
2018-03-25T05:45:37.138Z,19.00
2018-03-25T05:46:08.925Z,19.00
2018-03-25T05:46:40.680Z,19.00
2018-03-25T05:47:12.439Z,19.00
2018-03-25T05:47:44.387Z,19.00
2018-03-25T05:48:16.917Z,19.00
2018-03-25T05:48:48.633Z,19.00
2018-03-25T05:49:20.364Z,19.00
2018-03-25T05:49:52.305Z,19.00
2018-03-25T05:50:24.806Z,19.10
2018-03-25T05:50:56.553Z,19.00
2018-03-25T05:51:28.291Z,19.10
2018-03-25T05:52:00.033Z,19.10
2018-03-25T05:52:31.774Z,19.10
2018-03-25T05:53:03.501Z,19.10
2018-03-25T05:53:35.258Z,19.10
2018-03-25T05:54:06.987Z,19.10
2018-03-25T05:54:39.508Z,19.10
2018-03-25T05:55:11.260Z,19.10
2018-03-25T05:55:43.011Z,19.10
2018-03-25T05:56:15.523Z,19.20
2018-03-25T05:56:47.274Z,19.10
2018-03-25T05:57:19.004Z,19.20
2018-03-25T05:57:50.743Z,19.20
2018-03-25T05:58:22.495Z,19.20
2018-03-25T05:58:54.260Z,19.20
2018-03-25T05:59:25.992Z,19.20
2018-03-25T05:59:57.743Z,19.20
2018-03-25T06:00:29.504Z,19.20
2018-03-25T06:01:01.472Z,19.20
2018-03-25T06:01:33.989Z,19.20
2018-03-25T06:02:05.748Z,19.20
2018-03-25T06:02:37.535Z,19.30
2018-03-25T06:03:10.809Z,19.30
2018-03-25T06:03:42.540Z,19.30
2018-03-25T06:04:14.272Z,19.30
2018-03-25T06:04:46.106Z,19.30
2018-03-25T06:05:17.825Z,19.30
2018-03-25T06:05:49.565Z,19.30
2018-03-25T06:06:21.324Z,19.30
2018-03-25T06:06:53.089Z,19.30
2018-03-25T06:07:24.832Z,19.30
2018-03-25T06:07:56.589Z,19.30
2018-03-25T06:08:28.346Z,19.30
2018-03-25T06:09:00.164Z,19.30
2018-03-25T06:09:31.903Z,19.30
2018-03-25T06:10:03.863Z,19.30
2018-03-25T06:10:36.006Z,19.30
2018-03-25T06:11:08.483Z,19.40
2018-03-25T06:11:40.228Z,19.30
2018-03-25T06:12:11.974Z,19.40
2018-03-25T06:12:43.726Z,19.40
2018-03-25T06:13:15.465Z,19.40
2018-03-25T06:13:47.215Z,19.40
2018-03-25T06:14:18.955Z,19.40
2018-03-25T06:14:50.692Z,19.40
2018-03-25T06:15:22.460Z,19.50
2018-03-25T06:15:54.207Z,19.40
2018-03-25T06:16:26.139Z,19.50
2018-03-25T06:16:57.908Z,19.50
2018-03-25T06:17:29.636Z,19.50
2018-03-25T06:18:01.380Z,19.50
2018-03-25T06:18:33.147Z,19.50
2018-03-25T06:19:05.689Z,19.60
2018-03-25T06:19:37.423Z,19.60
2018-03-25T06:20:09.168Z,19.60
2018-03-25T06:20:40.915Z,19.60
2018-03-25T06:21:12.660Z,19.60
2018-03-25T06:21:44.396Z,19.60
2018-03-25T06:22:16.258Z,19.60
2018-03-25T06:22:48.022Z,19.70
2018-03-25T06:23:21.264Z,19.70
2018-03-25T06:23:53.209Z,19.70
2018-03-25T06:24:24.952Z,19.70
2018-03-25T06:24:56.687Z,19.70
2018-03-25T06:25:28.439Z,19.80
2018-03-25T06:26:00.192Z,19.80
2018-03-25T06:26:31.971Z,19.80
2018-03-25T06:27:04.502Z,19.80
2018-03-25T06:27:36.218Z,19.80
2018-03-25T06:28:08.205Z,19.80
2018-03-25T06:28:39.926Z,19.80
2018-03-25T06:29:11.905Z,19.80
2018-03-25T06:29:43.612Z,19.90
2018-03-25T06:30:15.400Z,19.90
2018-03-25T06:30:47.151Z,19.90
2018-03-25T06:31:19.680Z,19.90
2018-03-25T06:31:51.437Z,19.90
2018-03-25T06:32:23.184Z,19.90
2018-03-25T06:32:54.946Z,19.90
2018-03-25T06:33:26.713Z,19.90
2018-03-25T06:33:58.426Z,19.90
2018-03-25T06:34:30.169Z,19.90
2018-03-25T06:35:01.920Z,19.90
2018-03-25T06:35:33.656Z,19.90
2018-03-25T06:36:05.387Z,19.90
2018-03-25T06:36:37.140Z,19.90
2018-03-25T06:37:08.872Z,19.90
2018-03-25T06:37:40.650Z,19.90
2018-03-25T06:38:12.385Z,19.80
2018-03-25T06:38:44.163Z,19.90
2018-03-25T06:39:16.861Z,19.90
2018-03-25T06:39:48.608Z,19.90
2018-03-25T06:40:20.373Z,19.90
2018-03-25T06:40:52.121Z,19.90
2018-03-25T06:41:23.860Z,19.90
2018-03-25T06:41:55.634Z,20.00
2018-03-25T06:42:27.373Z,20.00
2018-03-25T06:42:59.094Z,20.00
2018-03-25T06:43:30.841Z,20.10
2018-03-25T06:44:02.598Z,20.00
2018-03-25T06:44:34.355Z,20.10
2018-03-25T06:45:06.083Z,20.00
2018-03-25T06:45:37.832Z,20.00
2018-03-25T06:46:09.570Z,20.10
2018-03-25T06:46:41.321Z,20.10
2018-03-25T06:47:13.074Z,20.00
2018-03-25T06:47:44.811Z,20.10
2018-03-25T06:48:16.553Z,20.10
2018-03-25T06:48:48.305Z,20.10
2018-03-25T06:49:20.854Z,20.10
2018-03-25T06:49:52.566Z,20.10